TimeCDT,TemperatureF,Dew PointF,Humidity,Sea Level PressureIn,VisibilityMPH,Wind Direction,Wind SpeedMPH,Gust SpeedMPH,PrecipitationIn,Events,Conditions,WindDirDegrees,DateUTC
12:56 AM,79.9,61.0,52,29.86,10.0,SSE,6.9,-,N/A,,Clear,150,2013-09-25 05:56:00
1:56 AM,79.0,61.9,56,29.86,10.0,SSE,8.1,-,N/A,,Clear,150,2013-09-25 06:56:00
2:56 AM,77.9,63.0,60,29.85,10.0,SSE,8.1,-,N/A,,Clear,160,2013-09-25 07:56:00
3:56 AM,75.9,63.9,66,29.85,10.0,Calm,Calm,-,N/A,,Clear,0,2013-09-25 08:56:00
4:56 AM,73.9,63.9,71,29.84,10.0,Calm,Calm,-,N/A,,Clear,0,2013-09-25 09:56:00
5:56 AM,72.9,64.9,76,29.85,10.0,Calm,Calm,-,N/A,,Clear,0,2013-09-25 10:56:00
6:56 AM,72.9,65.8,79,29.86,10.0,Calm,Calm,-,N/A,,Clear,0,2013-09-25 11:56:00
7:56 AM,72.0,66.9,84,29.86,10.0,Calm,Calm,-,N/A,,Clear,0,2013-09-25 12:56:00
8:56 AM,77.9,66.9,69,29.87,10.0,SSE,5.8,-,N/A,,Clear,160,2013-09-25 13:56:00
9:56 AM,84.9,65.8,53,29.88,10.0,SSE,8.1,-,N/A,,Clear,160,2013-09-25 14:56:00
10:56 AM,88.9,66.9,48,29.88,10.0,South,8.1,-,N/A,,Clear,180,2013-09-25 15:56:00
11:56 AM,91.9,64.9,41,29.87,10.0,South,6.9,-,N/A,,Clear,180,2013-09-25 16:56:00
12:56 PM,95.0,61.0,32,29.85,10.0,SE,8.1,-,N/A,,Clear,140,2013-09-25 17:56:00
1:56 PM,95.9,59.0,29,29.82,10.0,ESE,10.4,18.4,N/A,,Clear,120,2013-09-25 18:56:00
2:56 PM,97.9,59.0,27,29.79,10.0,ESE,9.2,-,N/A,,Scattered Clouds,120,2013-09-25 19:56:00
3:56 PM,97.9,59.0,27,29.76,10.0,East,8.1,-,N/A,,Scattered Clouds,100,2013-09-25 20:56:00
4:56 PM,97.9,57.9,26,29.75,10.0,SE,9.2,-,N/A,,Partly Cloudy,140,2013-09-25 21:56:00
5:56 PM,97.0,57.9,27,29.75,10.0,SE,11.5,-,N/A,,Partly Cloudy,130,2013-09-25 22:56:00
6:56 PM,93.9,56.8,29,29.75,10.0,ESE,11.5,-,N/A,,Partly Cloudy,120,2013-09-25 23:56:00
7:56 PM,90.9,57.9,33,29.77,10.0,ESE,10.4,-,N/A,,Clear,120,2013-09-26 00:56:00
8:56 PM,86.0,57.9,38,29.78,10.0,East,8.1,-,N/A,,Clear,100,2013-09-26 01:56:00
9:56 PM,83.8,57.9,41,29.79,10.0,ESE,8.1,-,N/A,,Clear,110,2013-09-26 02:56:00
10:56 PM,81.9,63.9,54,29.80,10.0,SE,12.7,-,N/A,,Clear,130,2013-09-26 03:56:00
11:56 PM,81.9,68.9,65,29.81,10.0,SE,13.8,-,N/A,,Clear,140,2013-09-26 04:56:00